Time;durP1;ratioP1;P1;durP2;ratioP2;P2;SDS_P1;SDS_P2;PMS_P1;PMS_P2;Temp;Humidity;BMP_temperature;BMP_pressure;BME280_temperature;BME280_humidity;BME280_pressure;Samples;Min_cycle;Max_cycle;Signal;HPM_P1;HPM_P2
2023/09/25 00:00:02;;;;;;;;;;;;;;;27.65;40.41;100919.94;5102582;28;1177;-27
2023/09/25 00:02:33;;;;;;;;;;;;;;;27.72;40.14;100928.19;5116660;28;1010;-26
2023/09/25 00:04:58;;;;;;;;;;;;;;;27.72;40.21;100925.47;5112968;28;1898;-26
2023/09/25 00:07:23;;;;;;;;;;;;;;;27.70;40.44;100927.50;5116190;28;1224;-29
2023/09/25 00:09:49;;;;;;;;;;;;;;;27.62;40.70;100915.75;5115724;28;1217;-27
2023/09/25 00:12:15;;;;;;;;;;;;;;;27.69;40.10;100925.84;5092871;28;2228;-27
2023/09/25 00:14:40;;;;;;;;;;;;;;;27.69;39.97;100921.28;5109571;28;1016;-27
2023/09/25 00:17:06;;;;;;;;;;;;;;;27.72;40.02;100928.19;5096365;28;1054;-27
2023/09/25 00:19:32;;;;;;;;;;;;;;;27.68;40.19;100932.22;5102133;28;1158;-26
2023/09/25 00:21:58;;;;;;;;;;;;;;;27.71;39.88;100921.91;5109317;28;994;-29
2023/09/25 00:24:23;;;;;;;;;;;;;;;27.74;40.16;100924.25;5104142;28;1906;-29
2023/09/25 00:26:49;;;;;;;;;;;;;;;27.68;40.09;100924.09;5101534;28;1022;-27
2023/09/25 00:29:14;;;;;;;;;;;;;;;27.67;40.20;100922.44;5096078;28;1018;-27
2023/09/25 00:31:40;;;;;;;;;;;;;;;27.61;40.36;100926.72;5108661;28;906;-29
2023/09/25 00:34:05;;;;;;;;;;;;;;;27.69;39.89;100923.13;5096745;28;1050;-28
2023/09/25 00:36:31;;;;;;;;;;;;;;;27.70;40.07;100925.66;5077307;28;1065;-27
2023/09/25 00:38:56;;;;;;;;;;;;;;;27.61;40.25;100927.56;5083050;28;1408;-30
2023/09/25 00:41:22;;;;;;;;;;;;;;;27.65;40.13;100927.19;5103918;28;2511;-26
2023/09/25 00:43:47;;;;;;;;;;;;;;;27.66;39.96;100931.59;5101541;28;1129;-27
2023/09/25 00:46:13;;;;;;;;;;;;;;;27.69;39.84;100928.53;5095913;28;1898;-24
2023/09/25 00:48:42;;;;;;;;;;;;;;;27.66;40.17;100924.28;5091126;28;1184;-26
2023/09/25 00:51:07;;;;;;;;;;;;;;;27.69;40.09;100926.69;5108637;28;998;-28
2023/09/25 00:53:33;;;;;;;;;;;;;;;27.62;40.26;100920.28;5109604;28;1017;-28
2023/09/25 00:55:58;;;;;;;;;;;;;;;27.66;39.98;100921.59;5078814;28;916;-28
2023/09/25 00:58:24;;;;;;;;;;;;;;;27.71;39.64;100924.63;5113459;28;1073;-28
2023/09/25 01:00:50;;;;;;;;;;;;;;;27.66;39.69;100926.19;5111849;28;1049;-26
2023/09/25 01:03:15;;;;;;;;;;;;;;;27.59;39.77;100934.16;5096445;28;1165;-26
2023/09/25 01:05:41;;;;;;;;;;;;;;;27.53;40.00;100921.41;5099212;28;1918;-25
2023/09/25 01:08:06;;;;;;;;;;;;;;;27.63;40.01;100922.81;5091193;28;1130;-29
2023/09/25 01:10:32;;;;;;;;;;;;;;;27.66;39.81;100924.28;5108191;28;979;-26
2023/09/25 01:12:59;;;;;;;;;;;;;;;27.67;40.04;100922.44;5070367;28;2355;-30
2023/09/25 01:15:25;;;;;;;;;;;;;;;27.72;39.58;100918.22;5081350;28;1099;-27
2023/09/25 01:17:51;;;;;;;;;;;;;;;27.67;39.67;100914.34;5105617;28;1086;-26
2023/09/25 01:20:17;;;;;;;;;;;;;;;27.63;39.80;100922.81;5073144;28;882;-26
2023/09/25 01:22:44;;;;;;;;;;;;;;;27.64;39.83;100915.56;5104319;28;1118;-29
2023/09/25 01:25:12;;;;;;;;;;;;;;;27.68;39.47;100913.31;5119573;28;1906;-28
2023/09/25 01:27:44;;;;;;;;;;;;;;;27.58;40.17;100911.69;5119708;28;1066;-25
2023/09/25 01:30:13;;;;;;;;;;;;;;;27.62;39.87;100909.47;5087006;28;1070;-28
2023/09/25 01:32:39;;;;;;;;;;;;;;;27.62;39.81;100904.94;5076507;28;873;-25
2023/09/25 01:35:11;;;;;;;;;;;;;;;27.63;39.68;100909.31;5106748;28;1019;-28
2023/09/25 01:37:37;;;;;;;;;;;;;;;27.59;39.78;100909.84;5107932;28;1170;-26
2023/09/25 01:40:05;;;;;;;;;;;;;;;27.72;39.39;100904.69;5091130;28;1165;-27
2023/09/25 01:42:30;;;;;;;;;;;;;;;27.64;39.73;100907.44;5089840;28;2570;-30
2023/09/25 01:44:56;;;;;;;;;;;;;;;27.59;39.97;100909.84;5095230;28;1906;-25
2023/09/25 01:47:21;;;;;;;;;;;;;;;27.58;39.93;100908.16;5099244;28;1114;-26
2023/09/25 01:49:47;;;;;;;;;;;;;;;27.63;40.10;100911.16;5098716;28;1109;-29
2023/09/25 01:52:14;;;;;;;;;;;;;;;27.68;39.41;100906.06;5089586;28;1343;-27
2023/09/25 01:54:39;;;;;;;;;;;;;;;27.65;39.96;100902.84;5087544;28;1091;-29
2023/09/25 01:57:05;;;;;;;;;;;;;;;27.68;39.77;100907.91;5090030;28;863;-26
2023/09/25 01:59:31;;;;;;;;;;;;;;;27.63;39.79;100901.19;5084456;28;1398;-26
2023/09/25 02:01:57;;;;;;;;;;;;;;;27.62;39.72;100904.06;5098750;28;1030;-29
2023/09/25 02:04:23;;;;;;;;;;;;;;;27.53;40.15;100899.78;5100892;28;1960;-29
2023/09/25 02:06:49;;;;;;;;;;;;;;;27.69;39.53;100888.00;5091816;28;1614;-28
2023/09/25 02:09:14;;;;;;;;;;;;;;;27.70;39.74;100895.94;5102719;28;1095;-27
2023/09/25 02:11:40;;;;;;;;;;;;;;;27.61;39.99;100897.00;5073133;28;2389;-26
2023/09/25 02:14:05;;;;;;;;;;;;;;;27.66;40.03;100894.56;5089361;28;1191;-28
2023/09/25 02:16:31;;;;;;;;;;;;;;;27.62;39.92;100895.97;5089288;28;1234;-27
2023/09/25 02:18:57;;;;;;;;;;;;;;;27.57;40.10;100896.53;5085183;28;1342;-30
2023/09/25 02:21:22;;;;;;;;;;;;;;;27.65;39.93;100900.16;5077094;28;1143;-26
2023/09/25 02:23:48;;;;;;;;;;;;;;;27.71;39.82;100900.28;5118254;28;1022;-27
2023/09/25 02:26:13;;;;;;;;;;;;;;;27.69;39.96;100893.41;5100503;28;1894;-26
2023/09/25 02:28:39;;;;;;;;;;;;;;;27.72;39.50;100893.03;5105069;28;1097;-29
2023/09/25 02:31:04;;;;;;;;;;;;;;;27.64;40.05;100896.63;5092704;28;1136;-26
2023/09/25 02:33:30;;;;;;;;;;;;;;;27.65;40.10;100892.91;5118760;28;1018;-27
2023/09/25 02:36:02;;;;;;;;;;;;;;;27.68;40.03;100906.06;5102567;28;1114;-27
2023/09/25 02:38:28;;;;;;;;;;;;;;;27.57;40.04;100912.75;5090787;28;1015;-26
2023/09/25 02:40:53;;;;;;;;;;;;;;;27.64;39.96;100904.75;5090927;28;1883;-27
2023/09/25 02:43:19;;;;;;;;;;;;;;;27.56;39.95;100905.63;5108444;28;1026;-28
2023/09/25 02:45:44;;;;;;;;;;;;;;;27.74;39.60;100912.63;5099422;28;1922;-29
2023/09/25 02:48:10;;;;;;;;;;;;;;;27.77;39.88;100912.25;5102414;28;1025;-27
2023/09/25 02:50:35;;;;;;;;;;;;;;;27.72;39.89;100910.09;5106639;28;1042;-26
2023/09/25 02:53:01;;;;;;;;;;;;;;;27.75;39.56;100906.19;5116158;28;1014;-26
2023/09/25 02:55:26;;;;;;;;;;;;;;;27.74;39.64;100915.31;5103729;28;1023;-25
2023/09/25 02:57:52;;;;;;;;;;;;;;;27.73;39.35;100911.78;5095131;28;1158;-28
2023/09/25 03:00:18;;;;;;;;;;;;;;;27.74;39.75;100913.44;5108884;28;1236;-26
2023/09/25 03:02:44;;;;;;;;;;;;;;;27.54;40.49;100918.50;5079159;28;1024;-28
2023/09/25 03:05:10;;;;;;;;;;;;;;;27.69;40.16;100915.88;5079641;28;1969;-26
2023/09/25 03:07:35;;;;;;;;;;;;;;;27.55;40.05;100913.94;5112527;28;1078;-30
2023/09/25 03:10:01;;;;;;;;;;;;;;;27.69;40.00;100918.59;5109084;28;1129;-27
2023/09/25 03:12:27;;;;;;;;;;;;;;;27.67;39.78;100919.75;5069517;28;2333;-28
2023/09/25 03:14:53;;;;;;;;;;;;;;;27.74;39.35;100920.72;5117803;28;1053;-25
2023/09/25 03:17:18;;;;;;;;;;;;;;;27.69;39.08;100925.84;5097915;28;1051;-28
2023/09/25 03:19:44;;;;;;;;;;;;;;;27.57;38.72;100915.44;5086994;28;1217;-25
2023/09/25 03:22:09;;;;;;;;;;;;;;;27.57;39.01;100920.00;5097650;28;1221;-26
2023/09/25 03:24:35;;;;;;;;;;;;;;;27.65;38.90;100924.47;5110126;28;1968;-26
2023/09/25 03:27:00;;;;;;;;;;;;;;;27.83;38.11;100925.03;5093075;28;1216;-26
2023/09/25 03:29:26;;;;;;;;;;;;;;;27.62;38.42;100931.94;5099004;28;1157;-28
2023/09/25 03:31:52;;;;;;;;;;;;;;;27.70;38.29;100928.34;5113894;28;998;-26
2023/09/25 03:34:20;;;;;;;;;;;;;;;27.68;38.29;100925.00;5075245;28;1268;-29
2023/09/25 03:36:47;;;;;;;;;;;;;;;27.71;38.65;100921.91;5059502;28;1301;-27
2023/09/25 03:39:12;;;;;;;;;;;;;;;27.74;38.30;100934.25;5077343;28;1167;-27
2023/09/25 03:41:38;;;;;;;;;;;;;;;27.75;37.90;100928.66;5060365;28;2285;-26
2023/09/25 03:44:04;;;;;;;;;;;;;;;27.52;42.54;100931.34;5086844;28;1229;-31
2023/09/25 03:46:30;;;;;;;;;;;;;;;27.01;45.29;100935.38;5096645;28;1978;-26
2023/09/25 03:48:55;;;;;;;;;;;;;;;26.95;44.63;100938.78;5085562;28;1114;-27
2023/09/25 03:51:21;;;;;;;;;;;;;;;26.58;45.84;100931.22;5083985;28;1380;-26
2023/09/25 03:53:46;;;;;;;;;;;;;;;26.25;45.75;100942.94;5092007;28;1007;-27
2023/09/25 03:56:12;;;;;;;;;;;;;;;26.66;46.18;100927.63;5078244;28;1174;-30
2023/09/25 03:58:38;;;;;;;;;;;;;;;26.61;47.05;100930.03;5095671;28;1264;-30
2023/09/25 04:01:03;;;;;;;;;;;;;;;26.72;47.07;100928.78;5095419;28;1190;-29
2023/09/25 04:03:29;;;;;;;;;;;;;;;26.67;46.86;100929.31;5095593;28;1114;-30
2023/09/25 04:05:56;;;;;;;;;;;;;;;26.64;47.03;100927.81;5096794;28;1910;-28
2023/09/25 04:08:21;;;;;;;;;;;;;;;26.68;47.34;100936.38;5096308;28;1083;-29
2023/09/25 04:10:47;;;;;;;;;;;;;;;26.44;48.00;100922.00;5108926;28;1010;-23
2023/09/25 04:13:12;;;;;;;;;;;;;;;26.90;45.51;100940.19;5097856;28;2169;-28
2023/09/25 04:15:38;;;;;;;;;;;;;;;27.10;45.21;100938.91;5091132;28;1154;-25
2023/09/25 04:18:06;;;;;;;;;;;;;;;27.18;45.18;100938.00;5095622;28;942;-25
2023/09/25 04:20:32;;;;;;;;;;;;;;;27.12;45.60;100940.41;5095933;28;1245;-28
2023/09/25 04:22:57;;;;;;;;;;;;;;;27.37;44.01;100944.81;5096084;28;1062;-25
2023/09/25 04:25:24;;;;;;;;;;;;;;;27.24;44.61;100948.09;5095942;28;1968;-26
2023/09/25 04:27:50;;;;;;;;;;;;;;;27.37;44.41;100945.66;5096190;28;1129;-30
2023/09/25 04:30:17;;;;;;;;;;;;;;;27.42;43.34;100946.97;5096283;28;1138;-26
2023/09/25 04:32:46;;;;;;;;;;;;;;;27.48;43.24;100943.53;5095311;28;1451;-27
2023/09/25 04:35:12;;;;;;;;;;;;;;;27.38;43.82;100946.47;5096395;28;1077;-26
2023/09/25 04:37:41;;;;;;;;;;;;;;;27.69;41.84;100948.31;5095613;28;1149;-25
2023/09/25 04:40:30;;;;;;;;;;;;;;;27.54;42.47;100948.22;5095333;28;1069;-27
2023/09/25 04:42:56;;;;;;;;;;;;;;;27.79;40.70;100950.75;5095574;28;1967;-24
2023/09/25 04:45:23;;;;;;;;;;;;;;;27.77;42.25;100952.78;5096011;28;1930;-18
2023/09/25 04:47:51;;;;;;;;;;;;;;;27.87;42.31;100952.53;5096004;28;1113;-16
2023/09/25 04:50:17;;;;;;;;;;;;;;;27.76;42.46;100956.50;5095942;28;1173;-17
2023/09/25 04:52:45;;;;;;;;;;;;;;;27.70;42.91;100951.84;5077965;28;1150;-17
2023/09/25 04:55:11;;;;;;;;;;;;;;;27.83;41.99;100951.22;5095222;28;1014;-17
2023/09/25 04:57:40;;;;;;;;;;;;;;;27.82;40.84;100954.94;5095680;28;1118;-17
2023/09/25 05:00:21;;;;;;;;;;;;;;;27.31;44.35;100967.13;5095399;28;1253;-16
2023/09/25 05:02:47;;;;;;;;;;;;;;;27.76;42.97;100967.31;5095913;28;1130;-17
2023/09/25 05:05:13;;;;;;;;;;;;;;;28.09;40.20;100961.59;5095794;28;1961;-17
2023/09/25 05:07:39;;;;;;;;;;;;;;;27.98;40.51;100954.78;5095390;28;1142;-18
2023/09/25 05:10:05;;;;;;;;;;;;;;;28.31;39.85;100963.59;5095240;28;1007;-17
2023/09/25 05:12:31;;;;;;;;;;;;;;;28.20;39.88;100954.91;5090956;28;1815;-17
2023/09/25 05:14:56;;;;;;;;;;;;;;;28.12;41.56;100963.13;5096030;28;1039;-17
2023/09/25 05:17:22;;;;;;;;;;;;;;;28.11;41.86;100958.75;5095175;28;1106;-17
2023/09/25 05:19:47;;;;;;;;;;;;;;;28.39;39.61;100950.00;5096223;28;1081;-17
2023/09/25 05:22:13;;;;;;;;;;;;;;;28.41;41.00;100963.34;5094403;28;916;-17
2023/09/25 05:24:38;;;;;;;;;;;;;;;28.15;40.85;100957.31;5087686;28;1914;-17
2023/09/25 05:27:04;;;;;;;;;;;;;;;28.06;41.28;100956.56;5079561;28;1097;-17
2023/09/25 05:29:29;;;;;;;;;;;;;;;28.25;39.86;100965.16;5095823;28;1046;-17
2023/09/25 05:31:55;;;;;;;;;;;;;;;28.22;41.17;100962.84;5094595;28;1082;-17
2023/09/25 05:34:20;;;;;;;;;;;;;;;28.32;41.84;100974.22;5095619;28;969;-17
2023/09/25 05:36:46;;;;;;;;;;;;;;;28.38;41.32;100969.13;5095517;28;1010;-17
2023/09/25 05:39:11;;;;;;;;;;;;;;;28.40;42.16;100972.47;5107925;28;1002;-17
2023/09/25 05:41:37;;;;;;;;;;;;;;;28.48;42.05;100978.66;5084619;28;1850;-17
2023/09/25 05:44:02;;;;;;;;;;;;;;;28.34;41.99;100977.59;5084572;28;1141;-17
2023/09/25 05:46:28;;;;;;;;;;;;;;;28.42;41.30;100963.16;5099016;28;1909;-17
2023/09/25 05:48:54;;;;;;;;;;;;;;;28.53;42.44;100979.97;5099356;28;1074;-17
2023/09/25 05:51:19;;;;;;;;;;;;;;;28.57;43.30;100994.78;5099368;28;940;-17
2023/09/25 05:53:45;;;;;;;;;;;;;;;28.55;42.88;100981.44;5098346;28;1054;-17
2023/09/25 05:56:10;;;;;;;;;;;;;;;28.51;43.57;100972.00;5103256;28;1063;-17
2023/09/25 05:58:37;;;;;;;;;;;;;;;28.51;43.69;100990.94;5098164;28;1048;-17
2023/09/25 06:01:02;;;;;;;;;;;;;;;28.50;43.68;100985.72;5098510;28;1209;-26
2023/09/25 06:03:28;;;;;;;;;;;;;;;28.66;44.85;100996.34;5098262;28;1023;-26
2023/09/25 06:05:53;;;;;;;;;;;;;;;28.43;44.07;100989.19;5098471;28;1905;-25
2023/09/25 06:08:19;;;;;;;;;;;;;;;28.50;44.25;100989.28;5098935;28;1069;-25
2023/09/25 06:10:45;;;;;;;;;;;;;;;28.59;43.24;100990.84;5099023;28;842;-27
2023/09/25 06:13:11;;;;;;;;;;;;;;;28.40;44.31;100976.03;5107494;28;1763;-26
2023/09/25 06:15:37;;;;;;;;;;;;;;;28.28;43.97;100981.03;5098447;28;1221;-25
2023/09/25 06:18:07;;;;;;;;;;;;;;;28.59;45.13;100985.44;5099501;28;1094;-25
2023/09/25 06:20:36;;;;;;;;;;;;;;;28.50;42.64;100989.28;5118207;28;1045;-27
2023/09/25 06:23:02;;;;;;;;;;;;;;;28.30;44.05;100989.81;5085209;28;900;-26
2023/09/25 06:25:29;;;;;;;;;;;;;;;28.58;43.30;100991.88;5078102;28;1906;-25
2023/09/25 06:27:55;;;;;;;;;;;;;;;28.65;43.03;100993.84;5093708;28;1384;-26
2023/09/25 06:30:21;;;;;;;;;;;;;;;28.60;43.05;101002.53;5097841;28;1632;-25
2023/09/25 06:32:47;;;;;;;;;;;;;;;28.45;44.74;101010.63;5096172;28;1244;-26
2023/09/25 06:35:13;;;;;;;;;;;;;;;28.54;44.21;101006.00;5096963;28;1027;-26
2023/09/25 06:37:38;;;;;;;;;;;;;;;28.53;43.91;101013.25;5094280;28;1119;-25
2023/09/25 06:40:09;;;;;;;;;;;;;;;28.64;43.70;101008.41;5080488;28;961;-24
2023/09/25 06:42:35;;;;;;;;;;;;;;;28.64;43.57;101011.97;5082826;28;1868;-27
2023/09/25 06:45:03;;;;;;;;;;;;;;;28.70;43.66;101007.66;5086548;28;1905;-29
2023/09/25 06:47:28;;;;;;;;;;;;;;;28.67;42.91;101011.59;5092706;28;1157;-25
2023/09/25 06:49:54;;;;;;;;;;;;;;;28.44;46.49;101006.25;5090086;28;1276;-26
2023/09/25 06:52:19;;;;;;;;;;;;;;;28.80;43.03;101007.38;5096815;28;1197;-27
2023/09/25 06:54:45;;;;;;;;;;;;;;;28.87;41.06;101005.59;5082553;28;1100;-27
2023/09/25 06:57:10;;;;;;;;;;;;;;;28.93;42.65;101001.28;5086544;28;1288;-26
2023/09/25 06:59:36;;;;;;;;;;;;;;;28.77;42.35;100997.75;5078553;28;1173;-27
2023/09/25 07:02:01;;;;;;;;;;;;;;;28.85;41.91;101000.38;5109462;28;1328;-26
2023/09/25 07:04:27;;;;;;;;;;;;;;;28.76;42.80;100993.34;5103566;28;1133;-28
2023/09/25 07:06:52;;;;;;;;;;;;;;;28.81;40.89;101003.66;5105054;28;1910;-25
2023/09/25 07:09:18;;;;;;;;;;;;;;;28.92;41.22;101003.16;5096884;28;1116;-26
2023/09/25 07:11:44;;;;;;;;;;;;;;;28.93;42.50;101012.94;5098164;28;1855;-25
2023/09/25 07:14:09;;;;;;;;;;;;;;;29.18;41.02;101023.50;5097220;28;1061;-26
2023/09/25 07:16:35;;;;;;;;;;;;;;;29.50;41.18;101009.66;5094488;28;1212;-27
2023/09/25 07:19:00;;;;;;;;;;;;;;;29.56;40.79;101018.91;5096853;28;1109;-26
2023/09/25 07:21:26;;;;;;;;;;;;;;;29.44;40.74;101008.56;5096814;28;1157;-28
2023/09/25 07:23:51;;;;;;;;;;;;;;;29.26;41.07;101019.00;5096818;28;1118;-23
2023/09/25 07:26:17;;;;;;;;;;;;;;;29.43;39.23;101016.88;5093933;28;1906;-26
2023/09/25 07:28:44;;;;;;;;;;;;;;;29.57;39.50;101021.41;5066507;28;1126;-25
2023/09/25 07:31:10;;;;;;;;;;;;;;;29.39;39.80;101021.00;5063811;28;1099;-25
2023/09/25 07:33:35;;;;;;;;;;;;;;;29.35;38.65;101017.84;5097279;28;1007;-30
2023/09/25 07:36:01;;;;;;;;;;;;;;;29.42;39.21;101020.63;5076602;28;1111;-26
2023/09/25 07:38:26;;;;;;;;;;;;;;;29.34;38.79;101018.88;5092155;28;1327;-27
2023/09/25 07:40:52;;;;;;;;;;;;;;;29.32;38.49;101023.66;5096073;28;1995;-26
2023/09/25 07:43:19;;;;;;;;;;;;;;;29.42;38.76;101031.47;5082602;28;1335;-28
2023/09/25 07:45:51;;;;;;;;;;;;;;;29.47;38.52;101029.00;5080084;28;1906;-27
2023/09/25 07:48:16;;;;;;;;;;;;;;;29.79;38.75;101026.88;5080398;28;1304;-30
2023/09/25 07:50:45;;;;;;;;;;;;;;;29.99;38.30;101037.03;5082497;28;1019;-27
2023/09/25 07:53:11;;;;;;;;;;;;;;;30.21;38.85;101036.19;5079390;28;1030;-28
2023/09/25 07:55:37;;;;;;;;;;;;;;;30.05;38.88;101017.25;5077615;28;1154;-27
2023/09/25 07:58:04;;;;;;;;;;;;;;;29.91;38.95;101027.16;5096307;28;1139;-27
2023/09/25 08:00:37;;;;;;;;;;;;;;;29.94;38.32;101037.63;5092250;28;1120;-27
2023/09/25 08:03:02;;;;;;;;;;;;;;;30.02;38.16;101043.94;5092272;28;1150;-26
2023/09/25 08:05:28;;;;;;;;;;;;;;;30.12;38.19;101038.16;5084952;28;1984;-26
2023/09/25 08:07:53;;;;;;;;;;;;;;;30.28;38.01;101037.91;5079809;28;1303;-26
2023/09/25 08:10:19;;;;;;;;;;;;;;;30.38;37.74;101039.44;5081537;28;1099;-28
2023/09/25 08:12:45;;;;;;;;;;;;;;;30.28;37.94;101027.06;5083691;28;2212;-28
2023/09/25 08:15:10;;;;;;;;;;;;;;;30.24;37.95;101017.66;5091880;28;1292;-26
2023/09/25 08:17:46;;;;;;;;;;;;;;;30.53;37.30;101023.88;5076192;28;1015;-28
2023/09/25 08:20:20;;;;;;;;;;;;;;;30.38;36.86;101015.84;5086238;28;1063;-29
2023/09/25 08:22:46;;;;;;;;;;;;;;;30.43;37.20;101024.22;5092109;28;1233;-26
2023/09/25 08:25:11;;;;;;;;;;;;;;;30.26;37.25;101031.84;5076365;28;2031;-28
2023/09/25 08:27:37;;;;;;;;;;;;;;;30.57;36.69;101015.31;5077316;28;995;-25
2023/09/25 08:30:03;;;;;;;;;;;;;;;30.44;36.89;101025.06;5076889;28;1161;-29
2023/09/25 08:32:29;;;;;;;;;;;;;;;30.41;37.12;101011.91;5076342;28;1186;-26
2023/09/25 08:34:55;;;;;;;;;;;;;;;30.43;37.05;101012.53;5085311;28;1061;-27
2023/09/25 08:37:20;;;;;;;;;;;;;;;30.37;36.79;101005.19;5082126;28;1109;-27
2023/09/25 08:39:45;;;;;;;;;;;;;;;30.34;36.99;101008.31;5095741;28;1276;-27
2023/09/25 08:42:11;;;;;;;;;;;;;;;30.29;37.04;101017.91;5089036;28;1828;-28
2023/09/25 08:44:37;;;;;;;;;;;;;;;30.54;36.27;101011.16;5076418;28;1344;-26
2023/09/25 08:47:03;;;;;;;;;;;;;;;30.38;36.81;100999.56;5100884;28;1033;-29
2023/09/25 08:49:29;;;;;;;;;;;;;;;30.72;36.43;100998.91;5109067;28;1083;-29
2023/09/25 08:51:54;;;;;;;;;;;;;;;30.38;36.42;101005.00;5095424;28;1037;-27
2023/09/25 08:54:20;;;;;;;;;;;;;;;30.32;36.65;100994.94;5081997;28;1019;-30
2023/09/25 08:57:16;;;;;;;;;;;;;;;29.57;36.71;100888.59;5090982;28;1455;-27
2023/09/25 08:59:46;;;;;;;;;;;;;;;30.58;36.32;101000.72;5946863;22;7562;-24
2023/09/25 09:02:12;;;;;;;;;;;;;;;30.63;36.14;100992.81;5069810;28;2101;-24
2023/09/25 09:04:37;;;;;;;;;;;;;;;30.26;36.19;100999.28;5075502;28;1722;-24
2023/09/25 09:07:08;;;;;;;;;;;;;;;30.19;37.52;101001.94;5074539;28;1030;-24
2023/09/25 09:09:34;;;;;;;;;;;;;;;30.14;37.32;101008.97;5075979;28;2382;-23
2023/09/25 09:11:59;;;;;;;;;;;;;;;30.22;36.53;101010.72;5075201;28;2210;-24
2023/09/25 09:14:35;;;;;;;;;;;;;;;30.21;36.69;101006.34;5075246;28;2336;-23
2023/09/25 09:17:04;;;;;;;;;;;;;;;30.24;36.90;101001.38;5075039;28;1147;-24
2023/09/25 09:19:39;;;;;;;;;;;;;;;30.35;35.88;101010.81;5078587;28;1085;-24
2023/09/25 09:22:05;;;;;;;;;;;;;;;30.35;35.50;101001.81;5078696;28;1027;-23
2023/09/25 09:24:35;;;;;;;;;;;;;;;30.23;35.63;101010.53;5079295;28;899;-24
2023/09/25 09:27:01;;;;;;;;;;;;;;;30.28;35.71;101018.09;5079473;28;1918;-24
2023/09/25 09:29:27;;;;;;;;;;;;;;;30.38;36.82;101005.00;5078879;28;953;-24
2023/09/25 09:31:53;;;;;;;;;;;;;;;30.38;35.96;101012.31;5079138;28;1289;-23
2023/09/25 09:34:21;;;;;;;;;;;;;;;30.44;35.33;101000.66;5079360;28;1066;-25
2023/09/25 09:36:51;;;;;;;;;;;;;;;30.50;34.85;101005.28;5078666;28;995;-25
2023/09/25 09:39:21;;;;;;;;;;;;;;;30.35;35.32;101007.25;5079310;28;1229;-25
2023/09/25 09:41:48;;;;;;;;;;;;;;;30.29;35.05;101019.75;5079191;28;1083;-24
2023/09/25 09:44:13;;;;;;;;;;;;;;;30.43;36.02;101002.53;5060473;28;1111;-25
2023/09/25 09:46:41;;;;;;;;;;;;;;;30.60;35.11;101028.50;5055929;28;1914;-24
2023/09/25 09:49:08;;;;;;;;;;;;;;;30.67;35.72;101013.94;5061179;28;1039;-24
2023/09/25 09:51:34;;;;;;;;;;;;;;;30.79;33.91;101026.94;5060107;28;1103;-24
2023/09/25 09:54:00;;;;;;;;;;;;;;;30.67;35.07;101032.09;5048573;28;1081;-24
2023/09/25 09:56:26;;;;;;;;;;;;;;;30.68;34.58;101014.75;5060643;28;1051;-23
2023/09/25 09:58:51;;;;;;;;;;;;;;;30.58;34.13;101015.13;5059936;28;1414;-25
2023/09/25 10:01:17;;;;;;;;;;;;;;;30.62;35.44;101012.84;5077933;28;1094;-23
2023/09/25 10:03:42;;;;;;;;;;;;;;;30.66;34.69;101028.53;5078621;28;1328;-24
2023/09/25 10:06:09;;;;;;;;;;;;;;;30.63;34.75;101030.84;5059994;28;1981;-24
2023/09/25 10:08:34;;;;;;;;;;;;;;;30.74;34.82;101030.25;5078126;28;1356;-23
2023/09/25 10:11:16;;;;;;;;;;;;;;;30.67;34.46;101029.38;5077212;28;1294;-23
2023/09/25 10:13:41;;;;;;;;;;;;;;;30.88;35.13;101036.59;5077780;28;1088;-24
2023/09/25 10:16:07;;;;;;;;;;;;;;;30.89;35.76;101035.59;5056538;28;1071;-25
2023/09/25 10:18:33;;;;;;;;;;;;;;;30.85;35.61;101034.31;5077533;28;1312;-24
2023/09/25 10:21:09;;;;;;;;;;;;;;;30.95;35.50;101039.34;5077167;28;1364;-24
2023/09/25 10:23:34;;;;;;;;;;;;;;;30.94;35.55;101024.09;5074195;28;1135;-23
2023/09/25 10:26:03;;;;;;;;;;;;;;;31.10;34.89;101031.06;5069977;28;1906;-24
2023/09/25 10:28:28;;;;;;;;;;;;;;;31.03;34.51;101031.03;5077253;28;1290;-24
2023/09/25 10:30:57;;;;;;;;;;;;;;;31.14;35.20;101017.91;5077765;28;1158;-24
2023/09/25 10:33:23;;;;;;;;;;;;;;;31.09;34.74;101032.09;5077979;28;1087;-23
2023/09/25 10:35:49;;;;;;;;;;;;;;;31.21;35.10;101017.94;5053916;28;1188;-24
2023/09/25 10:38:15;;;;;;;;;;;;;;;31.18;34.29;101023.78;5077760;28;1359;-24
2023/09/25 10:40:44;;;;;;;;;;;;;;;31.21;35.47;101028.81;5069205;28;1166;-25
2023/09/25 10:43:10;;;;;;;;;;;;;;;31.24;33.97;101028.38;5069367;28;1294;-24
2023/09/25 10:45:35;;;;;;;;;;;;;;;31.14;34.19;101026.91;5075401;28;1986;-24
2023/09/25 10:48:01;;;;;;;;;;;;;;;31.23;34.06;101016.66;5058983;28;1290;-24
2023/09/25 10:50:27;;;;;;;;;;;;;;;31.60;32.99;101013.63;5076029;28;1096;-25
2023/09/25 10:52:52;;;;;;;;;;;;;;;31.41;32.24;101018.00;5076977;28;1082;-24
2023/09/25 10:55:18;;;;;;;;;;;;;;;31.84;29.65;101014.09;5077399;28;1091;-24
2023/09/25 10:57:44;;;;;;;;;;;;;;;31.50;32.17;101015.91;5076068;28;1026;-23
2023/09/25 11:00:14;;;;;;;;;;;;;;;31.63;31.55;101001.53;5075031;28;1130;-23
2023/09/25 11:02:40;;;;;;;;;;;;;;;31.19;31.54;101017.28;5071148;28;1323;-22
2023/09/25 11:05:07;;;;;;;;;;;;;;;31.08;31.33;101000.53;5076670;28;1969;-22
2023/09/25 11:07:33;;;;;;;;;;;;;;;31.26;31.30;101008.09;5076475;28;1508;-22
2023/09/25 11:09:59;;;;;;;;;;;;;;;30.93;31.39;101011.53;5072361;28;1087;-21
2023/09/25 11:12:24;;;;;;;;;;;;;;;31.25;30.34;101014.59;5071259;28;996;-21
2023/09/25 11:14:50;;;;;;;;;;;;;;;31.07;31.34;101015.16;5058141;28;1075;-21
2023/09/25 11:17:15;;;;;;;;;;;;;;;31.51;30.92;101018.44;5075703;28;908;-22
2023/09/25 11:19:44;;;;;;;;;;;;;;;31.31;30.92;101012.94;5057084;28;1067;-22
2023/09/25 11:22:11;;;;;;;;;;;;;;;31.69;30.04;101005.28;5074554;28;1143;-22
2023/09/25 11:24:36;;;;;;;;;;;;;;;31.35;28.27;101018.78;5075093;28;853;-24
2023/09/25 11:27:08;;;;;;;;;;;;;;;31.51;28.48;101023.88;5076734;28;1906;-23
2023/09/25 11:29:35;;;;;;;;;;;;;;;31.37;29.60;101016.69;5063633;28;1124;-24
2023/09/25 11:32:01;;;;;;;;;;;;;;;31.06;28.56;101004.50;5076421;28;1054;-24
2023/09/25 11:34:27;;;;;;;;;;;;;;;30.15;27.26;101005.22;5076129;28;1052;-25
2023/09/25 11:36:52;;;;;;;;;;;;;;;31.21;28.57;101016.06;5075573;28;1290;-25
2023/09/25 11:39:18;;;;;;;;;;;;;;;31.30;30.27;101022.13;5073999;28;1123;-26
2023/09/25 11:41:44;;;;;;;;;;;;;;;31.30;30.04;101005.81;5074857;28;1023;-25
2023/09/25 11:44:09;;;;;;;;;;;;;;;31.42;30.57;101002.53;5076070;28;1128;-24
2023/09/25 11:46:35;;;;;;;;;;;;;;;31.55;30.24;101007.16;5075977;28;1906;-25
2023/09/25 11:49:00;;;;;;;;;;;;;;;31.46;31.43;101010.09;5075280;28;1022;-25
2023/09/25 11:51:26;;;;;;;;;;;;;;;31.79;30.87;101013.88;5075957;28;1092;-25
2023/09/25 11:53:52;;;;;;;;;;;;;;;31.84;30.86;101007.78;5076072;28;1012;-24
2023/09/25 11:56:18;;;;;;;;;;;;;;;31.89;29.80;101008.84;5076273;28;1017;-25
2023/09/25 11:58:43;;;;;;;;;;;;;;;31.85;30.97;101014.91;5074900;28;1089;-25
2023/09/25 12:01:08;;;;;;;;;;;;;;;31.98;31.49;101014.13;5068934;28;1131;-25
2023/09/25 12:03:38;;;;;;;;;;;;;;;32.35;29.99;101021.78;5076048;28;1042;-26
2023/09/25 12:06:07;;;;;;;;;;;;;;;32.00;31.05;100999.22;5075656;28;1894;-24
2023/09/25 12:08:35;;;;;;;;;;;;;;;31.97;31.49;100996.94;5075920;28;1050;-25
2023/09/25 12:11:01;;;;;;;;;;;;;;;32.09;30.68;101005.31;5076191;28;1086;-24
2023/09/25 12:13:26;;;;;;;;;;;;;;;31.91;30.81;101005.06;5075312;28;841;-25
2023/09/25 12:15:52;;;;;;;;;;;;;;;31.77;32.06;101005.06;5075862;28;1051;-25
2023/09/25 12:18:17;;;;;;;;;;;;;;;31.65;31.60;100999.41;5075663;28;1011;-25
2023/09/25 12:20:43;;;;;;;;;;;;;;;31.25;32.58;101009.16;5075523;28;1232;-25
2023/09/25 12:23:09;;;;;;;;;;;;;;;31.35;32.47;101006.03;5075772;28;1054;-24
2023/09/25 12:25:34;;;;;;;;;;;;;;;31.33;32.69;101026.31;5075092;28;1955;-24
2023/09/25 12:28:00;;;;;;;;;;;;;;;31.38;32.42;101011.06;5074966;28;1086;-24
2023/09/25 12:30:26;;;;;;;;;;;;;;;31.63;31.13;100998.81;5075735;28;1063;-23
2023/09/25 12:32:51;;;;;;;;;;;;;;;31.62;31.51;101008.84;5074829;28;1190;-24
2023/09/25 12:35:18;;;;;;;;;;;;;;;31.50;31.65;101007.75;5074351;28;1320;-24
2023/09/25 12:37:44;;;;;;;;;;;;;;;31.62;31.56;101008.84;5075806;28;994;-23
2023/09/25 12:40:10;;;;;;;;;;;;;;;31.51;30.68;101015.72;5075926;28;1020;-24
2023/09/25 12:42:35;;;;;;;;;;;;;;;31.53;31.08;101018.25;5074984;28;1064;-24